createdAt,value
2019-04-03T00:00:05.720Z,15.71
2019-04-03T00:01:05.640Z,15.67
2019-04-03T00:02:05.570Z,15.68
2019-04-03T00:03:05.530Z,15.69
2019-04-03T00:04:05.429Z,15.65
2019-04-03T00:05:05.380Z,15.57
2019-04-03T00:06:05.873Z,15.46
2019-04-03T00:07:05.602Z,15.51
2019-04-03T00:08:06.399Z,15.49
2019-04-03T00:09:06.582Z,15.38
2019-04-03T00:10:06.697Z,15.36
2019-04-03T00:11:04.958Z,15.35
2019-04-03T00:12:04.893Z,15.47
2019-04-03T00:13:04.803Z,15.36
2019-04-03T00:14:04.734Z,15.36
2019-04-03T00:15:04.675Z,15.25
2019-04-03T00:16:04.607Z,15.11
2019-04-03T00:17:04.518Z,15.17
2019-04-03T00:18:04.450Z,15.13
2019-04-03T00:19:04.384Z,14.89
2019-04-03T00:20:04.312Z,14.94
2019-04-03T00:21:04.254Z,14.94
2019-04-03T00:22:04.180Z,15.03
2019-04-03T00:23:04.119Z,14.86
2019-04-03T00:24:04.052Z,14.86
2019-04-03T00:25:03.961Z,14.84
2019-04-03T00:26:03.893Z,14.77
2019-04-03T00:27:03.821Z,14.84
2019-04-03T00:28:03.755Z,14.86
2019-04-03T00:29:03.698Z,14.68
2019-04-03T00:30:03.631Z,14.72
2019-04-03T00:31:03.542Z,14.72
2019-04-03T00:32:03.561Z,14.86
2019-04-03T00:33:03.418Z,14.80
2019-04-03T00:34:03.342Z,14.78
2019-04-03T00:35:03.275Z,14.78
2019-04-03T00:36:03.203Z,14.80
2019-04-03T00:37:03.120Z,14.77
2019-04-03T00:38:03.051Z,14.86
2019-04-03T00:39:02.985Z,14.81
2019-04-03T00:40:03.007Z,14.92
2019-04-03T00:41:02.863Z,15.01
2019-04-03T00:42:02.785Z,15.03
2019-04-03T00:43:02.712Z,15.21
2019-04-03T00:44:02.644Z,15.14
2019-04-03T00:45:02.778Z,14.92
2019-04-03T00:46:02.493Z,14.98
2019-04-03T00:47:02.518Z,14.95
2019-04-03T00:48:02.369Z,14.95
2019-04-03T00:49:02.283Z,14.86
2019-04-03T00:50:02.310Z,15.02
2019-04-03T00:51:02.147Z,15.11
2019-04-03T00:52:02.152Z,15.06
2019-04-03T00:53:02.012Z,14.89
2019-04-03T00:54:01.940Z,14.88
2019-04-03T00:55:01.880Z,14.81
2019-04-03T00:56:01.808Z,14.84
2019-04-03T00:57:01.732Z,14.91
2019-04-03T00:58:01.653Z,14.88
2019-04-03T00:59:01.585Z,14.96
2019-04-03T01:00:01.899Z,14.94
2019-04-03T01:01:01.459Z,14.98
2019-04-03T01:02:01.391Z,14.94
2019-04-03T01:03:01.314Z,15.03
2019-04-03T01:04:01.263Z,14.99
2019-04-03T01:05:01.179Z,15.07
2019-04-03T01:06:01.103Z,14.84
2019-04-03T01:07:01.036Z,14.75
2019-04-03T01:08:00.964Z,14.72
2019-04-03T01:09:00.881Z,14.65
2019-04-03T01:10:00.811Z,14.58
2019-04-03T01:11:00.968Z,14.64
2019-04-03T01:12:01.158Z,14.72
2019-04-03T01:13:02.132Z,14.72
2019-04-03T01:14:01.608Z,14.83
2019-04-03T01:15:01.609Z,14.81
2019-04-03T01:16:02.110Z,14.86
2019-04-03T01:17:00.332Z,14.91
2019-04-03T01:18:00.257Z,14.95
2019-04-03T01:19:00.181Z,14.96
2019-04-03T01:20:00.111Z,15.06
2019-04-03T01:21:00.052Z,15.09
2019-04-03T01:21:59.983Z,15.11
2019-04-03T01:22:59.911Z,15.11
2019-04-03T01:23:59.842Z,15.06
2019-04-03T01:24:59.759Z,14.95
2019-04-03T01:25:59.688Z,14.99
2019-04-03T01:26:59.615Z,15.01
2019-04-03T01:27:59.667Z,14.91
2019-04-03T01:28:59.491Z,14.94
2019-04-03T01:29:59.419Z,15.01
2019-04-03T01:30:59.349Z,14.95
2019-04-03T01:31:59.278Z,15.09
2019-04-03T01:32:59.198Z,15.10
2019-04-03T01:33:59.126Z,15.10
2019-04-03T01:34:59.067Z,15.13
2019-04-03T01:35:59.001Z,15.06
2019-04-03T01:36:58.916Z,14.95
2019-04-03T01:37:58.847Z,14.95
2019-04-03T01:38:58.775Z,14.96
2019-04-03T01:39:58.747Z,14.88
2019-04-03T01:40:58.654Z,14.91
2019-04-03T01:41:58.575Z,14.94
2019-04-03T01:42:58.496Z,14.92
2019-04-03T01:43:58.513Z,14.91
2019-04-03T01:44:58.366Z,14.96
2019-04-03T01:45:58.293Z,14.95
2019-04-03T01:46:58.320Z,14.95
2019-04-03T01:47:58.535Z,14.89
2019-04-03T01:48:58.621Z,15.03
2019-04-03T01:49:58.558Z,15.11
2019-04-03T01:50:59.605Z,15.06
2019-04-03T01:51:58.997Z,15.06
2019-04-03T01:52:57.853Z,14.99
2019-04-03T01:53:57.722Z,14.95
2019-04-03T01:54:57.685Z,14.91
2019-04-03T01:55:57.579Z,14.89
2019-04-03T01:56:57.532Z,14.72
2019-04-03T01:57:57.451Z,14.64
2019-04-03T01:58:57.385Z,14.64
2019-04-03T01:59:57.321Z,14.51
2019-04-03T02:00:57.233Z,14.60
2019-04-03T02:01:57.380Z,14.57
2019-04-03T02:02:57.091Z,14.50
2019-04-03T02:03:57.021Z,14.51
2019-04-03T02:04:56.962Z,14.45
2019-04-03T02:05:56.895Z,14.54
2019-04-03T02:06:56.813Z,14.61
2019-04-03T02:07:56.769Z,14.47
2019-04-03T02:08:56.783Z,14.51
2019-04-03T02:09:56.786Z,14.42
2019-04-03T02:10:56.539Z,14.35
2019-04-03T02:11:56.466Z,14.43
2019-04-03T02:12:56.392Z,14.27
2019-04-03T02:13:56.311Z,14.25
2019-04-03T02:14:56.293Z,14.27
2019-04-03T02:15:56.194Z,14.24
2019-04-03T02:16:56.106Z,14.27
2019-04-03T02:17:56.039Z,14.33
2019-04-03T02:18:56.003Z,14.28
2019-04-03T02:19:56.920Z,14.28
2019-04-03T02:20:57.788Z,14.29
2019-04-03T02:21:58.128Z,14.32
2019-04-03T02:22:55.679Z,14.43
2019-04-03T02:23:55.609Z,14.33
2019-04-03T02:24:55.554Z,14.33
2019-04-03T02:25:55.635Z,14.27
2019-04-03T02:26:55.408Z,14.33
2019-04-03T02:27:55.341Z,14.21
2019-04-03T02:28:55.257Z,14.17
2019-04-03T02:29:55.187Z,14.25
2019-04-03T02:30:55.117Z,14.28
2019-04-03T02:31:55.047Z,14.46
2019-04-03T02:32:56.660Z,14.47
2019-04-03T02:33:54.921Z,14.54
2019-04-03T02:34:54.850Z,14.51
2019-04-03T02:35:54.780Z,14.51
2019-04-03T02:36:54.690Z,14.60
2019-04-03T02:37:54.721Z,14.57
2019-04-03T02:38:54.895Z,14.51
2019-04-03T02:39:59.032Z,14.51
2019-04-03T02:40:54.412Z,14.46
2019-04-03T02:41:54.342Z,14.52
2019-04-03T02:42:54.413Z,14.50
2019-04-03T02:43:54.200Z,14.50
2019-04-03T02:44:54.199Z,14.64
2019-04-03T02:45:56.332Z,14.60
2019-04-03T02:46:54.301Z,14.46
2019-04-03T02:47:54.020Z,14.46
2019-04-03T02:48:54.020Z,14.45
2019-04-03T02:49:54.061Z,14.22
2019-04-03T02:50:53.963Z,14.20
2019-04-03T02:51:53.900Z,14.27
2019-04-03T02:52:56.951Z,14.29
2019-04-03T02:53:53.641Z,14.32
2019-04-03T02:54:53.889Z,14.18
2019-04-03T02:55:53.429Z,14.17
2019-04-03T02:56:53.551Z,14.20
2019-04-03T02:57:53.229Z,14.24
2019-04-03T02:58:54.833Z,14.27
2019-04-03T02:59:57.894Z,14.20
2019-04-03T03:00:53.027Z,13.95
2019-04-03T03:01:52.953Z,14.00
2019-04-03T03:02:53.184Z,13.91
2019-04-03T03:03:53.017Z,13.87
2019-04-03T03:04:54.577Z,13.79
2019-04-03T03:05:52.664Z,13.84
2019-04-03T03:06:52.587Z,13.79
2019-04-03T03:07:52.516Z,13.89
2019-04-03T03:08:52.512Z,13.91
2019-04-03T03:09:52.365Z,14.02
2019-04-03T03:10:53.255Z,14.07
2019-04-03T03:11:55.203Z,14.18
2019-04-03T03:12:52.152Z,14.18
2019-04-03T03:13:52.341Z,14.14
2019-04-03T03:14:52.013Z,14.14
2019-04-03T03:15:51.951Z,14.12
2019-04-03T03:16:52.113Z,14.02
2019-04-03T03:17:54.536Z,14.07
2019-04-03T03:18:51.732Z,14.12
2019-04-03T03:19:51.652Z,14.10
2019-04-03T03:20:51.869Z,13.99
2019-04-03T03:21:51.528Z,14.09
2019-04-03T03:22:51.813Z,14.07
2019-04-03T03:23:55.438Z,14.07
2019-04-03T03:24:51.337Z,14.14
2019-04-03T03:25:51.233Z,13.92
2019-04-03T03:26:51.170Z,13.82
2019-04-03T03:27:51.102Z,13.73
2019-04-03T03:28:51.023Z,13.62
2019-04-03T03:29:51.218Z,13.71
2019-04-03T03:30:59.878Z,13.73
2019-04-03T03:32:16.460Z,13.75
2019-04-03T03:32:50.808Z,13.79
2019-04-03T03:33:50.952Z,13.84
2019-04-03T03:35:01.574Z,13.96
2019-04-03T03:35:51.776Z,13.91
2019-04-03T03:36:50.771Z,14.02
2019-04-03T03:37:50.710Z,14.10
2019-04-03T03:38:50.325Z,14.04
2019-04-03T03:39:50.238Z,13.95
2019-04-03T03:40:50.197Z,13.99
2019-04-03T03:41:50.116Z,13.97
2019-04-03T03:42:50.287Z,13.87
2019-04-03T03:43:49.953Z,13.77
2019-04-03T03:44:49.951Z,13.82
2019-04-03T03:45:52.293Z,13.81
2019-04-03T03:46:49.755Z,13.66
2019-04-03T03:47:50.013Z,13.69
2019-04-03T03:48:49.599Z,13.79
2019-04-03T03:49:50.705Z,13.75
2019-04-03T03:50:49.452Z,13.71
2019-04-03T03:51:49.427Z,13.59
2019-04-03T03:52:49.600Z,13.39
2019-04-03T03:53:49.248Z,13.44
2019-04-03T03:54:51.128Z,13.41
2019-04-03T03:55:49.093Z,13.36
2019-04-03T03:56:49.116Z,13.48
2019-04-03T03:57:48.970Z,13.52
2019-04-03T03:58:48.912Z,13.45
2019-04-03T03:59:51.093Z,13.49
2019-04-03T04:00:52.252Z,13.48
2019-04-03T04:01:48.728Z,13.59
2019-04-03T04:02:48.636Z,13.60
2019-04-03T04:03:48.886Z,13.49
2019-04-03T04:04:49.242Z,13.49
2019-04-03T04:05:48.558Z,13.46
2019-04-03T04:06:48.382Z,13.33
2019-04-03T04:07:48.244Z,13.38
2019-04-03T04:08:48.175Z,13.28
2019-04-03T04:09:50.564Z,13.26
2019-04-03T04:10:48.027Z,13.39
2019-04-03T04:11:47.971Z,13.39
2019-04-03T04:12:47.896Z,13.42
2019-04-03T04:13:49.444Z,13.44
2019-04-03T04:14:47.744Z,13.45
2019-04-03T04:15:47.710Z,13.45
2019-04-03T04:16:47.616Z,13.54
2019-04-03T04:17:50.470Z,13.38
2019-04-03T04:18:47.719Z,13.42
2019-04-03T04:19:47.384Z,13.39
2019-04-03T04:20:47.326Z,13.42
2019-04-03T04:21:47.398Z,13.49
2019-04-03T04:22:50.415Z,13.57
2019-04-03T04:23:47.742Z,13.54
2019-04-03T04:24:47.278Z,13.51
2019-04-03T04:25:47.143Z,13.52
2019-04-03T04:26:49.774Z,13.60
2019-04-03T04:27:46.828Z,13.62
2019-04-03T04:28:46.754Z,13.67
2019-04-03T04:29:46.733Z,13.77
2019-04-03T04:30:46.599Z,13.82
2019-04-03T04:31:46.689Z,13.84
2019-04-03T04:32:46.960Z,13.78
2019-04-03T04:33:48.003Z,13.79
2019-04-03T04:34:49.530Z,13.84
2019-04-03T04:35:46.468Z,13.85
2019-04-03T04:36:46.402Z,13.85
2019-04-03T04:37:46.560Z,13.85
2019-04-03T04:38:46.030Z,13.88
2019-04-03T04:39:45.973Z,13.95
2019-04-03T04:40:45.964Z,13.95
2019-04-03T04:41:45.827Z,13.96
2019-04-03T04:42:45.763Z,14.00
2019-04-03T04:43:45.674Z,13.91
2019-04-03T04:44:45.607Z,13.97
2019-04-03T04:45:45.564Z,14.07
2019-04-03T04:46:45.475Z,14.02
2019-04-03T04:47:46.413Z,14.07
2019-04-03T04:48:45.355Z,14.00
2019-04-03T04:49:45.288Z,14.07
2019-04-03T04:50:45.183Z,14.06
2019-04-03T04:51:45.122Z,14.03
2019-04-03T04:52:45.053Z,13.92
2019-04-03T04:53:44.977Z,13.81
2019-04-03T04:54:45.047Z,13.66
2019-04-03T04:55:44.823Z,13.41
2019-04-03T04:56:44.752Z,13.49
2019-04-03T04:57:44.684Z,13.52
2019-04-03T04:58:44.606Z,13.46
2019-04-03T04:59:45.273Z,13.63
2019-04-03T05:00:44.998Z,13.60
2019-04-03T05:01:44.399Z,13.73
2019-04-03T05:02:44.500Z,13.60
2019-04-03T05:03:44.268Z,13.59
2019-04-03T05:04:44.192Z,13.70
2019-04-03T05:05:44.119Z,13.63
2019-04-03T05:06:44.087Z,13.62
2019-04-03T05:07:43.972Z,13.66
2019-04-03T05:08:43.899Z,13.69
2019-04-03T05:09:43.827Z,13.69
2019-04-03T05:10:43.879Z,13.82
2019-04-03T05:11:43.876Z,13.82
2019-04-03T05:12:45.302Z,13.75
2019-04-03T05:13:46.384Z,13.66
2019-04-03T05:14:43.543Z,13.64
2019-04-03T05:15:43.400Z,13.69
2019-04-03T05:16:43.401Z,13.70
2019-04-03T05:17:43.267Z,13.71
2019-04-03T05:18:43.198Z,13.63
2019-04-03T05:19:43.113Z,13.51
2019-04-03T05:20:43.182Z,13.49
2019-04-03T05:21:43.187Z,13.46
2019-04-03T05:22:42.904Z,13.44
2019-04-03T05:23:42.841Z,13.38
2019-04-03T05:24:42.967Z,13.42
2019-04-03T05:25:42.689Z,13.46
2019-04-03T05:26:42.748Z,13.51
2019-04-03T05:27:42.557Z,13.49
2019-04-03T05:28:54.227Z,13.54
2019-04-03T05:29:42.432Z,13.51
2019-04-03T05:30:42.352Z,13.54
2019-04-03T05:31:42.260Z,13.55
2019-04-03T05:32:42.198Z,13.46
2019-04-03T05:33:42.462Z,13.42
2019-04-03T05:34:43.966Z,13.44
2019-04-03T05:35:42.234Z,13.33
2019-04-03T05:36:41.912Z,13.32
2019-04-03T05:37:41.836Z,13.33
2019-04-03T05:38:41.947Z,13.33
2019-04-03T05:39:41.705Z,13.42
2019-04-03T05:40:41.633Z,13.36
2019-04-03T05:41:41.565Z,13.44
2019-04-03T05:42:41.620Z,13.51
2019-04-03T05:43:41.440Z,13.49
2019-04-03T05:44:41.356Z,13.51
2019-04-03T05:45:42.264Z,13.49
2019-04-03T05:46:41.190Z,13.48
2019-04-03T05:47:41.388Z,13.46
2019-04-03T05:48:41.421Z,13.45
2019-04-03T05:49:40.986Z,13.46
2019-04-03T05:50:40.908Z,13.51
2019-04-03T05:51:40.848Z,13.48
2019-04-03T05:52:40.777Z,13.49
2019-04-03T05:53:40.705Z,13.46
2019-04-03T05:54:40.639Z,13.36
2019-04-03T05:55:41.424Z,13.28
2019-04-03T05:56:42.501Z,13.28
2019-04-03T05:57:40.428Z,13.26
2019-04-03T05:58:40.359Z,13.28
2019-04-03T05:59:40.261Z,13.28
2019-04-03T06:00:40.368Z,13.11
2019-04-03T06:01:42.619Z,13.28
2019-04-03T06:02:40.052Z,13.19
2019-04-03T06:03:44.478Z,13.25
2019-04-03T06:04:40.734Z,13.25
2019-04-03T06:05:39.836Z,13.12
2019-04-03T06:06:39.765Z,13.26
2019-04-03T06:07:39.710Z,13.26
2019-04-03T06:08:39.639Z,13.28
2019-04-03T06:09:39.583Z,13.17
2019-04-03T06:10:39.650Z,13.22
2019-04-03T06:11:40.778Z,13.22
2019-04-03T06:12:39.471Z,13.28
2019-04-03T06:13:39.268Z,13.33
2019-04-03T06:14:39.202Z,13.26
2019-04-03T06:15:39.134Z,13.29
2019-04-03T06:16:39.065Z,13.41
2019-04-03T06:17:39.001Z,13.44
2019-04-03T06:18:38.928Z,13.49
2019-04-03T06:19:39.873Z,13.59
2019-04-03T06:20:38.767Z,13.64
2019-04-03T06:21:38.725Z,13.45
2019-04-03T06:22:38.896Z,13.48
2019-04-03T06:23:38.642Z,13.59
2019-04-03T06:24:38.482Z,13.46
2019-04-03T06:25:38.410Z,13.49
2019-04-03T06:26:38.618Z,13.59
2019-04-03T06:27:40.700Z,13.63
2019-04-03T06:28:38.209Z,13.69
2019-04-03T06:29:38.159Z,13.66
2019-04-03T06:30:38.287Z,13.79
2019-04-03T06:31:38.010Z,13.82
2019-04-03T06:32:37.925Z,13.89
2019-04-03T06:33:37.855Z,13.99
2019-04-03T06:34:38.867Z,14.18
2019-04-03T06:35:37.825Z,14.18
2019-04-03T06:36:37.631Z,14.21
2019-04-03T06:37:37.571Z,14.17
2019-04-03T06:38:37.754Z,14.22
2019-04-03T06:39:37.418Z,14.27
2019-04-03T06:40:37.384Z,14.27
2019-04-03T06:41:37.276Z,14.28
2019-04-03T06:42:37.207Z,14.40
2019-04-03T06:43:37.149Z,14.35
2019-04-03T06:44:37.326Z,14.43
2019-04-03T06:45:37.008Z,14.37
2019-04-03T06:46:36.938Z,14.33
2019-04-03T06:47:36.874Z,14.33
2019-04-03T06:48:37.258Z,14.28
2019-04-03T06:49:36.757Z,14.33
2019-04-03T06:50:36.893Z,14.22
2019-04-03T06:51:36.774Z,14.25
2019-04-03T06:52:36.516Z,14.28
2019-04-03T06:53:36.430Z,14.27
2019-04-03T06:54:36.365Z,14.43
2019-04-03T06:55:36.620Z,14.25
2019-04-03T06:56:36.235Z,14.27
2019-04-03T06:57:39.006Z,14.37
2019-04-03T06:58:38.956Z,14.40
2019-04-03T06:59:36.008Z,14.40
2019-04-03T07:00:35.949Z,14.33
2019-04-03T07:01:36.015Z,14.32
2019-04-03T07:02:35.804Z,14.42
2019-04-03T07:03:35.789Z,14.61
2019-04-03T07:04:36.179Z,14.65
2019-04-03T07:05:35.603Z,14.70
2019-04-03T07:06:35.539Z,14.73
2019-04-03T07:07:35.732Z,14.65
2019-04-03T07:08:38.091Z,14.64
2019-04-03T07:09:36.828Z,14.72
2019-04-03T07:10:36.532Z,14.88
2019-04-03T07:11:35.207Z,14.92
2019-04-03T07:12:35.208Z,14.78
2019-04-03T07:13:35.088Z,14.78
2019-04-03T07:14:34.962Z,14.78
2019-04-03T07:15:35.191Z,14.77
2019-04-03T07:16:37.700Z,14.77
2019-04-03T07:17:34.766Z,14.78
2019-04-03T07:18:36.591Z,14.88
2019-04-03T07:19:34.616Z,14.69
2019-04-03T07:20:34.547Z,14.81
2019-04-03T07:21:34.573Z,14.94
2019-04-03T07:22:34.411Z,14.91
2019-04-03T07:23:34.355Z,15.09
2019-04-03T07:24:34.285Z,15.01
2019-04-03T07:25:34.672Z,15.01
2019-04-03T07:26:35.683Z,15.13
2019-04-03T07:27:36.593Z,14.98
2019-04-03T07:28:34.130Z,14.95
2019-04-03T07:29:33.987Z,15.07
2019-04-03T07:30:33.869Z,15.11
2019-04-03T07:31:33.873Z,15.03
2019-04-03T07:32:33.720Z,15.21
2019-04-03T07:33:34.012Z,15.28
2019-04-03T07:34:34.276Z,15.32
2019-04-03T07:35:33.518Z,15.27
2019-04-03T07:36:33.446Z,15.19
2019-04-03T07:37:33.372Z,15.38
2019-04-03T07:38:33.418Z,15.35
2019-04-03T07:39:33.250Z,15.28
2019-04-03T07:40:33.304Z,15.41
2019-04-03T07:41:33.190Z,15.29
2019-04-03T07:42:33.477Z,15.25
2019-04-03T07:43:32.979Z,15.19
2019-04-03T07:44:32.908Z,15.02
2019-04-03T07:45:33.499Z,14.86
2019-04-03T07:46:33.237Z,14.69
2019-04-03T07:47:34.435Z,14.75
2019-04-03T07:48:33.522Z,14.88
2019-04-03T07:49:32.552Z,14.95
2019-04-03T07:50:32.484Z,14.98
2019-04-03T07:51:32.426Z,15.02
2019-04-03T07:52:32.654Z,15.17
2019-04-03T07:53:32.289Z,15.11
2019-04-03T07:54:32.544Z,15.14
2019-04-03T07:55:32.271Z,15.17
2019-04-03T07:56:32.296Z,15.36
2019-04-03T07:57:32.193Z,15.44
2019-04-03T07:58:32.575Z,15.53
2019-04-03T07:59:33.548Z,15.64
2019-04-03T08:00:31.801Z,15.67
2019-04-03T08:01:31.731Z,15.74
2019-04-03T08:02:33.699Z,15.78
2019-04-03T08:03:31.607Z,15.62
2019-04-03T08:04:31.539Z,15.54
2019-04-03T08:05:31.671Z,15.60
2019-04-03T08:06:32.878Z,15.41
2019-04-03T08:07:31.598Z,15.31
2019-04-03T08:08:31.463Z,15.36
2019-04-03T08:09:31.188Z,15.13
2019-04-03T08:10:31.118Z,15.02
2019-04-03T08:11:32.646Z,15.09
2019-04-03T08:12:31.094Z,14.80
2019-04-03T08:13:30.904Z,14.89
2019-04-03T08:14:30.840Z,14.88
2019-04-03T08:15:30.904Z,14.94
2019-04-03T08:16:30.711Z,15.07
2019-04-03T08:17:30.645Z,15.21
2019-04-03T08:18:30.575Z,15.23
2019-04-03T08:19:30.496Z,14.92
2019-04-03T08:20:31.448Z,14.92
2019-04-03T08:21:30.946Z,14.99
2019-04-03T08:22:32.729Z,14.92
2019-04-03T08:23:30.419Z,15.07
2019-04-03T08:24:30.227Z,14.95
2019-04-03T08:25:30.091Z,14.91
2019-04-03T08:26:30.042Z,14.94
2019-04-03T08:27:29.945Z,14.92
2019-04-03T08:28:30.742Z,15.09
2019-04-03T08:29:32.666Z,15.02
2019-04-03T08:30:29.750Z,15.09
2019-04-03T08:31:29.693Z,15.21
2019-04-03T08:32:29.596Z,15.17
2019-04-03T08:33:32.318Z,15.17
2019-04-03T08:34:31.961Z,15.16
2019-04-03T08:35:29.774Z,15.20
2019-04-03T08:36:29.556Z,15.11
2019-04-03T08:37:31.676Z,15.11
2019-04-03T08:38:29.217Z,15.13
2019-04-03T08:39:29.126Z,15.09
2019-04-03T08:40:29.062Z,15.03
2019-04-03T08:41:28.992Z,15.14
2019-04-03T08:42:32.172Z,15.06
2019-04-03T08:43:31.486Z,15.13
2019-04-03T08:44:28.774Z,15.07
2019-04-03T08:45:28.747Z,14.95
2019-04-03T08:46:28.643Z,14.99
2019-04-03T08:47:28.670Z,14.94
2019-04-03T08:48:28.499Z,15.02
2019-04-03T08:49:28.516Z,14.98
2019-04-03T08:50:29.102Z,15.07
2019-04-03T08:51:28.303Z,15.13
2019-04-03T08:52:28.445Z,15.17
2019-04-03T08:53:28.167Z,15.19
2019-04-03T08:54:28.097Z,14.98
2019-04-03T08:55:28.019Z,15.09
2019-04-03T08:56:27.948Z,15.21
2019-04-03T08:57:27.878Z,15.16
2019-04-03T08:58:27.817Z,15.25
2019-04-03T08:59:28.710Z,15.23
2019-04-03T09:00:27.691Z,15.20
2019-04-03T09:01:27.690Z,15.19
2019-04-03T09:02:27.542Z,15.11
2019-04-03T09:03:27.477Z,14.99
2019-04-03T09:04:27.410Z,15.02
2019-04-03T09:05:27.338Z,14.72
2019-04-03T09:06:27.269Z,14.61
2019-04-03T09:07:27.216Z,14.51
2019-04-03T09:08:27.261Z,14.47
2019-04-03T09:09:29.850Z,14.45
2019-04-03T09:10:27.268Z,14.37
2019-04-03T09:11:26.936Z,14.45
2019-04-03T09:12:26.854Z,14.50
2019-04-03T09:13:26.792Z,14.35
2019-04-03T09:14:26.718Z,14.37
2019-04-03T09:15:28.275Z,14.47
2019-04-03T09:16:26.611Z,14.58
2019-04-03T09:17:26.508Z,14.69
2019-04-03T09:18:27.567Z,14.72
2019-04-03T09:19:26.356Z,14.78
2019-04-03T09:20:26.288Z,14.84
2019-04-03T09:21:26.215Z,14.61
2019-04-03T09:22:26.167Z,14.45
2019-04-03T09:23:26.088Z,14.50
2019-04-03T09:24:29.061Z,14.50
2019-04-03T09:25:25.980Z,14.68
2019-04-03T09:26:25.882Z,14.64
2019-04-03T09:27:25.804Z,14.83
2019-04-03T09:28:25.734Z,14.96
2019-04-03T09:29:25.660Z,15.07
2019-04-03T09:30:25.594Z,15.14
2019-04-03T09:31:25.540Z,15.14
2019-04-03T09:32:25.736Z,15.13
2019-04-03T09:33:26.038Z,15.19
2019-04-03T09:34:26.978Z,15.19
2019-04-03T09:35:25.444Z,15.14
2019-04-03T09:36:25.193Z,14.95
2019-04-03T09:37:25.122Z,14.94
2019-04-03T09:38:25.301Z,14.95
2019-04-03T09:39:25.075Z,14.95
2019-04-03T09:40:24.901Z,15.01
2019-04-03T09:41:25.091Z,14.99
2019-04-03T09:42:24.777Z,15.02
2019-04-03T09:43:24.792Z,14.92
2019-04-03T09:44:25.788Z,14.77
2019-04-03T09:45:26.079Z,14.70
2019-04-03T09:46:24.558Z,14.65
2019-04-03T09:47:24.434Z,14.58
2019-04-03T09:48:24.357Z,14.65
2019-04-03T09:49:24.440Z,14.73
2019-04-03T09:50:24.206Z,14.73
2019-04-03T09:51:24.151Z,14.86
2019-04-03T09:52:28.092Z,14.88
2019-04-03T09:53:26.387Z,14.84
2019-04-03T09:54:24.038Z,14.91
2019-04-03T09:55:23.861Z,14.99
2019-04-03T09:56:23.791Z,14.96
2019-04-03T09:57:23.722Z,14.94
2019-04-03T09:58:23.649Z,14.62
2019-04-03T09:59:23.596Z,14.72
2019-04-03T10:00:23.914Z,14.81
2019-04-03T10:01:23.458Z,14.83
2019-04-03T10:02:23.386Z,14.73
2019-04-03T10:03:23.923Z,14.47
2019-04-03T10:04:25.384Z,14.54
2019-04-03T10:05:23.179Z,14.46
2019-04-03T10:06:23.120Z,14.45
2019-04-03T10:07:23.048Z,14.51
2019-04-03T10:08:22.961Z,14.51
2019-04-03T10:09:23.113Z,14.60
2019-04-03T10:10:25.218Z,14.81
2019-04-03T10:11:22.762Z,14.84
2019-04-03T10:12:23.382Z,14.86
2019-04-03T10:13:24.847Z,14.70
2019-04-03T10:14:22.807Z,14.62
2019-04-03T10:15:22.484Z,14.50
2019-04-03T10:16:22.413Z,14.64
2019-04-03T10:17:22.344Z,14.75
2019-04-03T10:18:22.612Z,14.75
2019-04-03T10:19:22.421Z,14.89
2019-04-03T10:20:22.128Z,14.52
2019-04-03T10:21:22.274Z,14.58
2019-04-03T10:22:24.206Z,14.45
2019-04-03T10:23:22.198Z,14.32
2019-04-03T10:24:21.845Z,14.32
2019-04-03T10:25:21.775Z,14.17
2019-04-03T10:26:21.705Z,14.06
2019-04-03T10:27:21.651Z,14.15
2019-04-03T10:28:21.575Z,14.02
2019-04-03T10:29:21.510Z,13.95
2019-04-03T10:30:22.374Z,14.07
2019-04-03T10:31:23.523Z,14.17
2019-04-03T10:32:21.338Z,14.18
2019-04-03T10:33:21.218Z,14.25
2019-04-03T10:34:21.386Z,14.35
2019-04-03T10:35:21.099Z,14.37
2019-04-03T10:36:21.028Z,14.21
2019-04-03T10:37:21.123Z,14.17
2019-04-03T10:38:20.885Z,13.95
2019-04-03T10:39:20.826Z,13.87
2019-04-03T10:40:23.545Z,13.99
2019-04-03T10:41:20.668Z,14.07
2019-04-03T10:42:20.600Z,13.85
2019-04-03T10:43:20.513Z,13.79
2019-04-03T10:44:20.516Z,13.85
2019-04-03T10:45:20.386Z,13.87
2019-04-03T10:46:21.078Z,13.85
2019-04-03T10:47:24.690Z,13.78
2019-04-03T10:48:20.168Z,13.73
2019-04-03T10:49:20.108Z,13.60
2019-04-03T10:50:20.038Z,13.51
2019-04-03T10:51:19.962Z,13.48
2019-04-03T10:52:19.888Z,13.66
2019-04-03T10:53:20.637Z,13.45
2019-04-03T10:54:19.977Z,13.49
2019-04-03T10:55:19.679Z,13.55
2019-04-03T10:56:19.923Z,13.62
2019-04-03T10:57:19.631Z,13.79
2019-04-03T10:58:19.464Z,13.81
2019-04-03T10:59:19.383Z,13.63
2019-04-03T11:00:19.309Z,13.44
2019-04-03T11:01:19.244Z,13.33
2019-04-03T11:02:19.169Z,13.41
2019-04-03T11:03:19.115Z,13.44
2019-04-03T11:04:19.046Z,13.59
2019-04-03T11:05:18.970Z,13.60
2019-04-03T11:06:19.064Z,13.42
2019-04-03T11:07:19.097Z,13.45
2019-04-03T11:08:19.072Z,13.49
2019-04-03T11:09:18.845Z,13.57
2019-04-03T11:10:18.966Z,13.55
2019-04-03T11:11:18.534Z,13.46
2019-04-03T11:12:18.468Z,13.42
2019-04-03T11:13:18.392Z,13.42
2019-04-03T11:14:18.667Z,13.49
2019-04-03T11:15:18.264Z,13.54
2019-04-03T11:16:18.216Z,13.62
2019-04-03T11:17:18.825Z,13.67
2019-04-03T11:18:18.874Z,13.55
2019-04-03T11:19:19.558Z,13.70
2019-04-03T11:20:17.893Z,13.67
2019-04-03T11:21:17.835Z,13.63
2019-04-03T11:22:17.973Z,13.70
2019-04-03T11:23:19.559Z,13.60
2019-04-03T11:24:17.620Z,13.52
2019-04-03T11:25:17.558Z,13.55
2019-04-03T11:26:18.345Z,13.57
2019-04-03T11:27:17.423Z,13.51
2019-04-03T11:28:17.344Z,13.51
2019-04-03T11:29:17.265Z,13.42
2019-04-03T11:30:20.150Z,13.49
2019-04-03T11:31:25.890Z,13.49
2019-04-03T11:32:17.041Z,13.49
2019-04-03T11:33:17.121Z,13.66
2019-04-03T11:34:18.021Z,13.71
2019-04-03T11:35:16.833Z,13.59
2019-04-03T11:36:16.770Z,13.57
2019-04-03T11:37:16.692Z,13.49
2019-04-03T11:38:26.319Z,13.52
2019-04-03T11:39:16.862Z,13.62
2019-04-03T11:40:18.074Z,13.63
2019-04-03T11:41:19.129Z,13.62
2019-04-03T11:42:23.862Z,13.78
2019-04-03T11:43:16.254Z,13.64
2019-04-03T11:44:16.191Z,13.54
2019-04-03T11:45:16.111Z,13.57
2019-04-03T11:46:16.044Z,13.59
2019-04-03T11:47:15.992Z,13.41
2019-04-03T11:48:17.274Z,13.38
2019-04-03T11:49:15.829Z,13.32
2019-04-03T11:50:15.757Z,13.20
2019-04-03T11:51:15.695Z,13.07
2019-04-03T11:52:15.634Z,13.08
2019-04-03T11:53:15.886Z,13.08
2019-04-03T11:54:15.481Z,13.28
2019-04-03T11:55:15.585Z,13.26
2019-04-03T11:56:15.331Z,13.19
2019-04-03T11:57:16.403Z,13.28
2019-04-03T11:58:15.195Z,13.32
2019-04-03T11:59:15.117Z,13.44
2019-04-03T12:00:15.045Z,13.49
2019-04-03T12:01:16.275Z,13.52
2019-04-03T12:02:14.907Z,13.59
2019-04-03T12:03:14.839Z,13.62
2019-04-03T12:04:14.878Z,13.54
2019-04-03T12:05:16.182Z,13.52
2019-04-03T12:06:15.876Z,13.48
2019-04-03T12:07:14.545Z,13.45
2019-04-03T12:08:14.856Z,13.44
2019-04-03T12:09:14.401Z,13.30
2019-04-03T12:10:14.641Z,13.44
2019-04-03T12:11:14.272Z,13.42
2019-04-03T12:12:14.448Z,13.42
2019-04-03T12:13:14.854Z,13.52
2019-04-03T12:14:16.651Z,13.49
2019-04-03T12:15:16.283Z,13.63
2019-04-03T12:16:13.914Z,13.66
2019-04-03T12:17:13.847Z,13.67
2019-04-03T12:18:14.050Z,13.71
2019-04-03T12:19:13.813Z,13.79
2019-04-03T12:20:15.343Z,13.82
2019-04-03T12:21:14.376Z,13.96
2019-04-03T12:22:13.493Z,13.99
2019-04-03T12:23:13.405Z,14.04
2019-04-03T12:24:13.335Z,13.82
2019-04-03T12:25:13.275Z,13.69
2019-04-03T12:26:13.193Z,13.69
2019-04-03T12:27:14.042Z,13.66
2019-04-03T12:28:13.060Z,13.66
2019-04-03T12:29:13.297Z,13.75
2019-04-03T12:30:12.912Z,13.88
2019-04-03T12:31:12.864Z,13.96
2019-04-03T12:32:12.781Z,13.87
2019-04-03T12:33:12.708Z,13.92
2019-04-03T12:34:12.916Z,13.99
2019-04-03T12:35:12.841Z,14.03
2019-04-03T12:36:13.477Z,13.96
2019-04-03T12:37:12.665Z,13.91
2019-04-03T12:38:12.529Z,13.79
2019-04-03T12:39:12.286Z,13.64
2019-04-03T12:40:12.540Z,13.69
2019-04-03T12:41:12.319Z,13.52
2019-04-03T12:42:12.443Z,13.63
2019-04-03T12:43:12.250Z,13.52
2019-04-03T12:44:12.367Z,13.28
2019-04-03T12:45:12.072Z,13.26
2019-04-03T12:46:11.910Z,13.26
2019-04-03T12:47:13.085Z,13.29
2019-04-03T12:48:11.631Z,13.30
2019-04-03T12:49:11.560Z,13.29
2019-04-03T12:50:12.932Z,13.30
2019-04-03T12:51:11.429Z,13.33